createdAt,value
2023-06-25T00:00:25.364Z,75.87
2023-06-25T00:01:26.340Z,76.07
2023-06-25T00:02:27.240Z,76.67
2023-06-25T00:03:33.005Z,76.17
2023-06-25T00:04:28.906Z,76.07
2023-06-25T00:05:29.834Z,76.17
2023-06-25T00:06:31.460Z,76.57
2023-06-25T00:07:31.367Z,76.28
2023-06-25T00:08:32.297Z,76.37
2023-06-25T00:09:33.243Z,76.17
2023-06-25T00:10:35.165Z,76.57
2023-06-25T00:11:34.725Z,76.47
2023-06-25T00:12:35.651Z,76.57
2023-06-25T00:13:36.595Z,76.28
2023-06-25T00:14:37.341Z,76.57
2023-06-25T00:15:38.305Z,76.37
2023-06-25T00:16:39.264Z,76.78
2023-06-25T00:17:40.256Z,77.11
2023-06-25T00:18:41.429Z,76.71
2023-06-25T00:19:42.963Z,77.01
2023-06-25T00:20:41.899Z,77.51
2023-06-25T00:21:44.453Z,77.41
2023-06-25T00:22:57.558Z,77.21
2023-06-25T00:23:45.320Z,76.91
2023-06-25T00:24:45.976Z,77.31
2023-06-25T00:25:45.968Z,77.01
2023-06-25T00:26:46.436Z,77.35
2023-06-25T00:27:47.943Z,77.35
2023-06-25T00:28:48.433Z,77.45
2023-06-25T00:29:48.887Z,77.05
2023-06-25T00:30:49.852Z,77.35
2023-06-25T00:31:50.796Z,77.75
2023-06-25T00:32:51.753Z,77.65
2023-06-25T00:33:52.688Z,77.35
2023-06-25T00:34:53.639Z,77.45
2023-06-25T00:35:55.460Z,77.45
2023-06-25T00:36:55.974Z,77.55
2023-06-25T00:37:57.460Z,76.95
2023-06-25T00:38:57.460Z,77.35
2023-06-25T00:39:58.517Z,78.25
2023-06-25T00:40:58.455Z,78.05
2023-06-25T00:41:58.905Z,77.65
2023-06-25T00:43:00.144Z,77.85
2023-06-25T00:44:00.656Z,77.75
2023-06-25T00:45:01.568Z,78.25
2023-06-25T00:46:02.480Z,78.66
2023-06-25T00:47:03.403Z,77.95
2023-06-25T00:48:05.080Z,77.95
2023-06-25T00:49:05.953Z,77.65
2023-06-25T00:50:05.874Z,77.79
2023-06-25T00:51:06.796Z,78.59
2023-06-25T00:52:07.707Z,78.69
2023-06-25T00:53:08.773Z,78.79
2023-06-25T00:54:09.974Z,78.79
2023-06-25T00:55:09.953Z,78.69
2023-06-25T00:56:11.498Z,78.59
2023-06-25T00:57:11.392Z,78.59
2023-06-25T00:58:12.362Z,78.29
2023-06-25T00:59:13.293Z,79.80
2023-06-25T01:00:16.384Z,79.09
2023-06-25T01:01:15.089Z,78.79
2023-06-25T01:02:17.995Z,79.29
2023-06-25T01:03:17.023Z,78.59
2023-06-25T01:04:17.607Z,78.22
2023-06-25T01:05:18.509Z,78.63
2023-06-25T01:06:19.429Z,79.03
2023-06-25T01:07:20.516Z,79.43
2023-06-25T01:08:22.978Z,79.23
2023-06-25T01:09:22.519Z,79.43
2023-06-25T01:10:23.014Z,79.53
2023-06-25T01:11:22.948Z,79.43
2023-06-25T01:12:23.945Z,80.13
2023-06-25T01:13:25.482Z,79.93
2023-06-25T01:14:25.418Z,80.24
2023-06-25T01:15:26.346Z,80.43
2023-06-25T01:16:27.981Z,79.83
2023-06-25T01:17:29.519Z,79.83
2023-06-25T01:18:28.459Z,79.27
2023-06-25T01:19:29.965Z,79.57
2023-06-25T01:20:29.892Z,79.97
2023-06-25T01:21:30.888Z,80.77
2023-06-25T01:22:31.797Z,80.57
2023-06-25T01:23:32.711Z,79.87
2023-06-25T01:24:34.507Z,80.07
2023-06-25T01:25:34.707Z,80.27
2023-06-25T01:26:35.322Z,80.98
2023-06-25T01:27:37.086Z,80.47
2023-06-25T01:28:36.970Z,80.88
2023-06-25T01:29:38.485Z,81.12
2023-06-25T01:30:38.439Z,80.81
2023-06-25T01:31:39.388Z,81.32
2023-06-25T01:32:40.334Z,81.32
2023-06-25T01:33:41.211Z,80.51
2023-06-25T01:34:42.121Z,81.41
2023-06-25T01:35:43.065Z,81.12
2023-06-25T01:36:43.997Z,81.21
2023-06-25T01:37:44.933Z,82.02
2023-06-25T01:38:46.482Z,81.92
2023-06-25T01:39:46.388Z,81.62
2023-06-25T01:40:47.350Z,81.82
2023-06-25T01:41:50.000Z,81.82
2023-06-25T01:42:48.900Z,81.41
2023-06-25T01:43:49.849Z,81.72
2023-06-25T01:44:50.827Z,81.82
2023-06-25T01:45:53.507Z,81.21
2023-06-25T01:46:52.397Z,81.41
2023-06-25T01:47:53.425Z,81.21
2023-06-25T01:48:53.842Z,81.21
2023-06-25T01:49:54.780Z,81.12
2023-06-25T01:50:55.686Z,80.91
2023-06-25T01:51:57.475Z,81.62
2023-06-25T01:52:57.964Z,81.76
2023-06-25T01:53:57.897Z,81.35
2023-06-25T01:54:58.875Z,81.85
2023-06-25T01:55:59.814Z,82.26
2023-06-25T01:57:00.723Z,81.96
2023-06-25T01:58:01.630Z,81.85
2023-06-25T01:59:03.464Z,82.06
2023-06-25T02:00:05.011Z,82.56
2023-06-25T02:01:04.608Z,82.66
2023-06-25T02:02:04.559Z,82.86
2023-06-25T02:03:05.547Z,82.76
2023-06-25T02:04:06.991Z,83.06
2023-06-25T02:05:08.496Z,82.60
2023-06-25T02:06:07.400Z,83.11
2023-06-25T02:07:10.009Z,82.60
2023-06-25T02:08:08.903Z,82.60
2023-06-25T02:09:10.490Z,82.80
2023-06-25T02:10:10.985Z,83.20
2023-06-25T02:11:11.494Z,83.00
2023-06-25T02:12:11.977Z,83.11
2023-06-25T02:13:11.941Z,83.00
2023-06-25T02:14:12.892Z,83.51
2023-06-25T02:15:13.813Z,83.20
2023-06-25T02:16:15.507Z,83.00
2023-06-25T02:17:17.016Z,83.00
2023-06-25T02:18:16.533Z,83.40
2023-06-25T02:19:16.973Z,82.80
2023-06-25T02:20:17.993Z,83.40
2023-06-25T02:21:17.907Z,83.00
2023-06-25T02:22:20.491Z,83.81
2023-06-25T02:23:19.962Z,83.84
2023-06-25T02:24:20.386Z,83.45
2023-06-25T02:25:21.302Z,83.25
2023-06-25T02:26:22.311Z,83.25
2023-06-25T02:27:25.013Z,83.65
2023-06-25T02:28:24.475Z,83.65
2023-06-25T02:29:24.886Z,83.54
2023-06-25T02:30:26.490Z,83.54
2023-06-25T02:31:26.987Z,83.54
2023-06-25T02:32:26.988Z,84.25
2023-06-25T02:33:29.486Z,84.09
2023-06-25T02:34:29.008Z,84.29
2023-06-25T02:35:29.489Z,84.09
2023-06-25T02:36:29.463Z,84.39
2023-06-25T02:37:30.418Z,84.59
2023-06-25T02:38:31.351Z,84.80
2023-06-25T02:39:32.262Z,84.80
2023-06-25T02:40:33.991Z,84.49
2023-06-25T02:41:33.964Z,85.00
2023-06-25T02:42:34.872Z,84.59
2023-06-25T02:43:37.536Z,84.59
2023-06-25T02:44:36.990Z,85.00
2023-06-25T02:45:37.765Z,84.89
2023-06-25T02:46:40.081Z,84.69
2023-06-25T02:47:39.030Z,84.80
2023-06-25T02:48:39.936Z,84.89
2023-06-25T02:49:41.493Z,84.69
2023-06-25T02:50:41.634Z,84.89
2023-06-25T02:51:44.975Z,84.49
2023-06-25T02:52:43.514Z,84.59
2023-06-25T02:53:43.433Z,84.09
2023-06-25T02:54:44.344Z,84.39
2023-06-25T02:55:45.340Z,84.49
2023-06-25T02:56:46.265Z,84.69
2023-06-25T02:57:47.216Z,84.80
2023-06-25T02:58:50.069Z,84.59
2023-06-25T02:59:50.038Z,84.69
2023-06-25T03:00:51.510Z,84.89
2023-06-25T03:01:50.910Z,85.10
2023-06-25T03:02:53.579Z,85.00
2023-06-25T03:03:53.545Z,84.69
2023-06-25T03:04:53.458Z,85.00
2023-06-25T03:05:55.003Z,84.89
2023-06-25T03:06:57.548Z,84.59
2023-06-25T03:07:55.996Z,84.89
2023-06-25T03:08:57.989Z,84.59
2023-06-25T03:09:57.440Z,85.00
2023-06-25T03:10:58.434Z,85.03
2023-06-25T03:12:00.030Z,85.14
2023-06-25T03:12:59.920Z,85.03
2023-06-25T03:14:01.503Z,84.94
2023-06-25T03:15:01.507Z,85.03
2023-06-25T03:16:02.512Z,85.44
2023-06-25T03:17:02.918Z,85.44
2023-06-25T03:18:05.550Z,85.54
2023-06-25T03:19:04.602Z,85.64
2023-06-25T03:20:05.069Z,85.34
2023-06-25T03:21:05.996Z,85.34
2023-06-25T03:22:06.956Z,85.44
2023-06-25T03:23:07.745Z,85.64
2023-06-25T03:24:08.698Z,85.84
2023-06-25T03:25:09.609Z,85.64
2023-06-25T03:26:10.552Z,85.64
2023-06-25T03:27:11.488Z,85.94
2023-06-25T03:28:12.385Z,86.24
2023-06-25T03:29:13.337Z,86.04
2023-06-25T03:30:15.014Z,86.24
2023-06-25T03:31:17.624Z,85.74
2023-06-25T03:32:17.708Z,85.84
2023-06-25T03:33:18.025Z,85.84
2023-06-25T03:34:17.047Z,85.74
2023-06-25T03:35:17.983Z,85.84
2023-06-25T03:36:18.906Z,86.04
2023-06-25T03:37:21.532Z,85.94
2023-06-25T03:38:20.451Z,85.64
2023-06-25T03:39:22.005Z,85.74
2023-06-25T03:40:21.930Z,85.94
2023-06-25T03:41:23.526Z,85.74
2023-06-25T03:42:25.076Z,86.04
2023-06-25T03:43:24.034Z,86.15
2023-06-25T03:44:25.846Z,86.04
2023-06-25T03:45:25.771Z,86.24
2023-06-25T03:46:26.646Z,85.94
2023-06-25T03:47:27.769Z,86.04
2023-06-25T03:48:28.310Z,86.04
2023-06-25T03:49:28.778Z,85.94
2023-06-25T03:50:29.695Z,85.94
2023-06-25T03:51:30.622Z,85.94
2023-06-25T03:52:34.517Z,86.44
2023-06-25T03:53:32.425Z,86.15
2023-06-25T03:54:33.425Z,86.04
2023-06-25T03:55:34.019Z,86.15
2023-06-25T03:56:39.522Z,85.94
2023-06-25T03:57:35.485Z,85.74
2023-06-25T03:58:36.394Z,85.74
2023-06-25T03:59:37.304Z,86.24
2023-06-25T04:00:38.214Z,86.04
2023-06-25T04:01:39.216Z,85.94
2023-06-25T04:02:40.173Z,86.35
2023-06-25T04:03:41.182Z,86.04
2023-06-25T04:04:42.525Z,85.94
2023-06-25T04:05:42.490Z,86.04
2023-06-25T04:06:45.065Z,86.15
2023-06-25T04:07:44.523Z,86.24
2023-06-25T04:08:44.953Z,86.24
2023-06-25T04:09:45.851Z,86.15
2023-06-25T04:10:46.817Z,86.35
2023-06-25T04:11:47.820Z,86.35
2023-06-25T04:12:48.740Z,86.24
2023-06-25T04:13:51.629Z,85.84
2023-06-25T04:14:52.034Z,86.04
2023-06-25T04:15:52.019Z,86.24
2023-06-25T04:16:51.961Z,86.35
2023-06-25T04:17:53.540Z,86.24
2023-06-25T04:18:53.492Z,86.15
2023-06-25T04:19:54.399Z,86.15
2023-06-25T04:20:57.053Z,86.15
2023-06-25T04:21:56.540Z,86.15
2023-06-25T04:22:57.530Z,86.15
2023-06-25T04:23:57.449Z,85.64
2023-06-25T04:24:59.049Z,85.54
2023-06-25T04:25:59.033Z,85.74
2023-06-25T04:27:00.716Z,86.04
2023-06-25T04:28:00.664Z,85.64
2023-06-25T04:29:03.530Z,86.04
2023-06-25T04:30:03.061Z,85.94
2023-06-25T04:31:03.545Z,86.04
2023-06-25T04:32:04.717Z,85.74
2023-06-25T04:33:04.699Z,85.94
2023-06-25T04:34:05.626Z,85.90
2023-06-25T04:35:06.577Z,85.70
2023-06-25T04:36:07.485Z,85.90
2023-06-25T04:37:09.033Z,85.70
2023-06-25T04:38:09.544Z,85.70
2023-06-25T04:39:12.025Z,85.40
2023-06-25T04:40:10.489Z,85.80
2023-06-25T04:41:11.405Z,85.60
2023-06-25T04:42:15.308Z,85.50
2023-06-25T04:43:13.572Z,85.40
2023-06-25T04:44:13.567Z,85.60
2023-06-25T04:45:15.123Z,85.60
2023-06-25T04:46:15.073Z,85.40
2023-06-25T04:47:16.025Z,85.40
2023-06-25T04:48:16.455Z,86.10
2023-06-25T04:49:17.410Z,86.51
2023-06-25T04:50:19.062Z,86.21
2023-06-25T04:51:19.551Z,85.80
2023-06-25T04:52:19.963Z,86.21
2023-06-25T04:53:21.550Z,86.21
2023-06-25T04:54:26.056Z,85.86
2023-06-25T04:55:21.985Z,85.76
2023-06-25T04:56:22.902Z,86.16
2023-06-25T04:57:24.554Z,85.56
2023-06-25T04:58:26.085Z,85.46
2023-06-25T04:59:25.541Z,85.36
2023-06-25T05:00:25.971Z,85.25
2023-06-25T05:01:28.589Z,86.06
2023-06-25T05:02:27.494Z,86.06
2023-06-25T05:03:28.471Z,85.52
2023-06-25T05:04:29.386Z,85.52
2023-06-25T05:05:30.324Z,84.91
2023-06-25T05:06:32.034Z,85.02
2023-06-25T05:07:32.031Z,84.81
2023-06-25T05:08:32.983Z,84.71
2023-06-25T05:09:33.906Z,84.91
2023-06-25T05:10:34.842Z,84.91
2023-06-25T05:11:37.540Z,84.71
2023-06-25T05:12:36.510Z,84.88
2023-06-25T05:13:38.092Z,84.88
2023-06-25T05:14:37.985Z,84.47
2023-06-25T05:15:39.593Z,84.27
2023-06-25T05:16:39.508Z,83.97
2023-06-25T05:17:40.662Z,83.76
2023-06-25T05:18:41.050Z,83.76
2023-06-25T05:19:41.978Z,83.26
2023-06-25T05:20:44.557Z,83.47
2023-06-25T05:21:43.499Z,83.06
2023-06-25T05:22:44.399Z,82.52
2023-06-25T05:23:46.056Z,82.62
2023-06-25T05:24:45.966Z,82.12
2023-06-25T05:25:46.881Z,81.92
2023-06-25T05:26:47.912Z,82.12
2023-06-25T05:27:49.037Z,81.21
2023-06-25T05:28:48.997Z,80.71
2023-06-25T05:29:50.559Z,80.71
2023-06-25T05:30:52.091Z,80.77
2023-06-25T05:31:51.057Z,80.98
2023-06-25T05:32:53.560Z,80.68
2023-06-25T05:33:52.952Z,80.37
2023-06-25T05:34:54.555Z,80.07
2023-06-25T05:35:54.498Z,79.87
2023-06-25T05:36:55.426Z,79.47
2023-06-25T05:37:56.416Z,79.73
2023-06-25T05:38:56.878Z,78.63
2023-06-25T05:39:57.767Z,78.33
2023-06-25T05:40:58.724Z,78.33
2023-06-25T05:42:00.610Z,78.83
2023-06-25T05:43:00.542Z,78.53
2023-06-25T05:44:01.461Z,78.42
2023-06-25T05:45:04.076Z,77.99
2023-06-25T05:46:03.045Z,77.99
2023-06-25T05:47:04.130Z,78.19
2023-06-25T05:48:07.631Z,77.59
2023-06-25T05:49:07.065Z,77.79
2023-06-25T05:50:06.548Z,77.89
2023-06-25T05:51:07.522Z,77.89
2023-06-25T05:52:07.985Z,77.25
2023-06-25T05:53:08.885Z,77.55
2023-06-25T05:54:10.565Z,77.15
2023-06-25T05:55:10.551Z,76.75
2023-06-25T05:56:13.308Z,75.74
2023-06-25T05:57:14.056Z,75.54
2023-06-25T05:58:12.983Z,75.54
2023-06-25T05:59:14.564Z,75.60
2023-06-25T06:00:14.568Z,75.81
2023-06-25T06:01:15.047Z,75.91
2023-06-25T06:02:15.958Z,75.60
2023-06-25T06:03:17.011Z,74.90
2023-06-25T06:04:20.261Z,74.51
2023-06-25T06:05:18.163Z,74.10
2023-06-25T06:06:19.088Z,73.97
2023-06-25T06:07:20.084Z,72.97
2023-06-25T06:08:21.583Z,72.23
2023-06-25T06:09:22.068Z,72.23
2023-06-25T06:10:22.467Z,72.23
2023-06-25T06:11:23.389Z,72.30
2023-06-25T06:12:24.313Z,71.50
2023-06-25T06:13:25.259Z,71.80
2023-06-25T06:14:26.218Z,71.96
2023-06-25T06:15:28.071Z,71.36
2023-06-25T06:16:29.569Z,71.76
2023-06-25T06:17:28.521Z,71.86
2023-06-25T06:18:29.460Z,71.66
2023-06-25T06:19:32.101Z,71.86
2023-06-25T06:20:32.077Z,71.56
2023-06-25T06:21:31.980Z,71.36
2023-06-25T06:22:32.916Z,71.53
2023-06-25T06:23:33.854Z,71.03
2023-06-25T06:24:34.791Z,70.83
2023-06-25T06:25:36.130Z,70.92
2023-06-25T06:26:36.269Z,70.32
2023-06-25T06:27:37.225Z,70.32
2023-06-25T06:28:38.191Z,70.32
2023-06-25T06:29:39.132Z,69.79
2023-06-25T06:30:40.076Z,69.99
2023-06-25T06:31:40.984Z,69.69
2023-06-25T06:32:42.623Z,70.09
2023-06-25T06:33:43.065Z,69.39
2023-06-25T06:34:44.081Z,69.79
2023-06-25T06:35:43.980Z,69.79
2023-06-25T06:36:44.903Z,69.89
2023-06-25T06:37:45.882Z,69.79
2023-06-25T06:38:48.596Z,70.19
2023-06-25T06:39:47.917Z,69.79
2023-06-25T06:40:48.427Z,69.26
2023-06-25T06:41:49.365Z,68.76
2023-06-25T06:42:50.339Z,68.86
2023-06-25T06:43:51.264Z,68.56
2023-06-25T06:44:52.216Z,68.26
2023-06-25T06:45:55.100Z,68.16
2023-06-25T06:46:54.062Z,68.96
2023-06-25T06:47:54.995Z,68.86
2023-06-25T06:48:55.887Z,69.26
2023-06-25T06:49:56.821Z,69.36
2023-06-25T06:50:58.610Z,68.33
2023-06-25T06:51:59.376Z,68.33
2023-06-25T06:53:00.072Z,68.23
2023-06-25T06:53:59.999Z,68.73
2023-06-25T06:55:01.020Z,68.63
2023-06-25T06:56:01.478Z,68.13
2023-06-25T06:57:02.413Z,68.63
2023-06-25T06:58:03.348Z,68.63
2023-06-25T06:59:05.076Z,68.73
2023-06-25T07:00:05.042Z,68.40
2023-06-25T07:01:05.566Z,68.40
2023-06-25T07:02:07.184Z,68.99
2023-06-25T07:03:08.211Z,67.90
2023-06-25T07:04:07.605Z,67.30
2023-06-25T07:05:08.616Z,67.99
2023-06-25T07:06:10.100Z,67.30
2023-06-25T07:07:10.625Z,67.07
2023-06-25T07:08:11.081Z,67.46
2023-06-25T07:09:12.087Z,67.96
2023-06-25T07:10:12.584Z,66.77
2023-06-25T07:11:12.739Z,67.76
2023-06-25T07:12:13.156Z,67.16
2023-06-25T07:13:14.075Z,67.57
2023-06-25T07:14:15.000Z,67.26
2023-06-25T07:15:16.010Z,67.36
2023-06-25T07:16:17.098Z,66.63
2023-06-25T07:17:17.048Z,67.23
2023-06-25T07:18:17.946Z,67.53
2023-06-25T07:19:21.575Z,66.83
2023-06-25T07:20:19.565Z,67.43
2023-06-25T07:21:22.097Z,67.33
2023-06-25T07:22:20.999Z,67.33
2023-06-25T07:23:21.973Z,66.93
2023-06-25T07:24:23.604Z,66.70
2023-06-25T07:25:23.497Z,66.20
2023-06-25T07:26:24.414Z,66.50
2023-06-25T07:27:25.331Z,66.50
2023-06-25T07:28:26.284Z,67.00
2023-06-25T07:29:29.097Z,67.20
2023-06-25T07:30:28.030Z,66.30
2023-06-25T07:31:28.989Z,65.31
2023-06-25T07:32:30.616Z,65.47
2023-06-25T07:33:30.591Z,65.17
2023-06-25T07:34:32.096Z,67.17
2023-06-25T07:35:32.635Z,66.47
2023-06-25T07:36:32.529Z,66.97
2023-06-25T07:37:35.048Z,66.17
2023-06-25T07:38:34.602Z,65.17
2023-06-25T07:39:34.528Z,65.77
2023-06-25T07:40:35.473Z,64.64
2023-06-25T07:41:36.170Z,66.53
2023-06-25T07:42:37.102Z,65.84
2023-06-25T07:43:40.595Z,65.54
2023-06-25T07:44:50.273Z,65.44
2023-06-25T07:45:40.993Z,65.24
2023-06-25T07:46:40.202Z,65.31
2023-06-25T07:47:44.118Z,63.42
2023-06-25T07:48:42.058Z,63.52
2023-06-25T07:49:43.598Z,63.92
2023-06-25T07:50:44.146Z,63.62
2023-06-25T07:51:44.067Z,64.01
2023-06-25T07:52:45.034Z,64.28
2023-06-25T07:53:45.944Z,64.78
2023-06-25T07:54:46.871Z,64.58
2023-06-25T07:56:01.300Z,64.58
2023-06-25T07:56:49.581Z,63.09
2023-06-25T07:57:49.540Z,62.49
2023-06-25T07:58:50.470Z,63.49
2023-06-25T07:59:53.871Z,60.90
2023-06-25T08:00:53.129Z,60.21
2023-06-25T08:01:54.624Z,61.00
2023-06-25T08:02:53.647Z,61.50
2023-06-25T08:03:54.735Z,61.60
2023-06-25T08:04:55.660Z,62.26
2023-06-25T08:05:55.625Z,62.26
2023-06-25T08:06:58.175Z,61.37
2023-06-25T08:07:59.585Z,62.16
2023-06-25T08:08:57.992Z,62.46
2023-06-25T08:10:00.129Z,62.66
2023-06-25T08:10:59.730Z,62.86
2023-06-25T08:12:00.686Z,62.07
2023-06-25T08:13:01.705Z,62.07
2023-06-25T08:14:02.572Z,62.96
2023-06-25T08:15:05.145Z,62.66
2023-06-25T08:16:04.107Z,62.76
2023-06-25T08:17:06.630Z,61.47
2023-06-25T08:18:05.600Z,61.27
2023-06-25T08:19:07.114Z,60.84
2023-06-25T08:20:07.065Z,60.25
2023-06-25T08:21:07.989Z,60.35
2023-06-25T08:22:08.915Z,60.14
2023-06-25T08:23:11.625Z,59.45
2023-06-25T08:24:10.570Z,59.72
2023-06-25T08:25:11.598Z,59.52
2023-06-25T08:26:12.130Z,60.02
2023-06-25T08:27:14.116Z,59.52
2023-06-25T08:28:15.114Z,58.23
2023-06-25T08:29:14.513Z,58.92
2023-06-25T08:30:16.130Z,58.83
2023-06-25T08:31:16.183Z,58.33
2023-06-25T08:32:16.612Z,59.30
2023-06-25T08:33:17.517Z,58.50
2023-06-25T08:34:18.456Z,58.20
2023-06-25T08:35:19.426Z,58.50
2023-06-25T08:36:20.350Z,58.60
2023-06-25T08:37:21.276Z,59.79
2023-06-25T08:38:23.115Z,58.40
2023-06-25T08:39:23.621Z,58.60
2023-06-25T08:40:23.567Z,59.27
2023-06-25T08:41:24.497Z,59.36
2023-06-25T08:42:25.411Z,58.67
2023-06-25T08:43:26.341Z,56.98
2023-06-25T08:44:29.117Z,57.58
2023-06-25T08:45:28.622Z,57.28
2023-06-25T08:46:28.574Z,57.85
2023-06-25T08:47:29.486Z,58.15
2023-06-25T08:48:31.179Z,57.45
2023-06-25T08:49:31.067Z,57.55
2023-06-25T08:50:33.144Z,56.46
2023-06-25T08:51:32.073Z,55.47
2023-06-25T08:52:32.985Z,56.16
2023-06-25T08:53:34.635Z,56.36
2023-06-25T08:54:39.107Z,56.23
2023-06-25T08:55:35.238Z,56.53
2023-06-25T08:56:35.835Z,57.23
2023-06-25T08:57:36.239Z,56.23
2023-06-25T08:58:38.141Z,56.34
2023-06-25T08:59:38.067Z,55.44
2023-06-25T09:00:39.021Z,55.83
2023-06-25T09:01:40.705Z,55.54
2023-06-25T09:02:41.236Z,56.53
2023-06-25T09:03:41.217Z,56.90
2023-06-25T09:04:42.141Z,56.11
2023-06-25T09:05:43.634Z,55.02
2023-06-25T09:06:59.031Z,54.92
2023-06-25T09:07:46.189Z,55.21
2023-06-25T09:08:45.122Z,55.71
2023-06-25T09:09:46.048Z,54.52
2023-06-25T09:10:46.983Z,55.41
2023-06-25T09:11:47.886Z,54.42
2023-06-25T09:12:48.835Z,53.73
2023-06-25T09:13:50.633Z,53.50
2023-06-25T09:14:50.540Z,53.20
2023-06-25T09:15:51.459Z,54.49
2023-06-25T09:16:52.424Z,54.60
2023-06-25T09:17:53.488Z,54.30
2023-06-25T09:18:53.922Z,52.41
2023-06-25T09:19:54.811Z,52.71
2023-06-25T09:20:56.035Z,54.20
2023-06-25T09:21:56.577Z,53.90
2023-06-25T09:22:57.175Z,54.79
2023-06-25T09:23:58.676Z,54.00
2023-06-25T09:25:00.179Z,52.71
2023-06-25T09:25:59.058Z,53.31
2023-06-25T09:27:00.214Z,51.92
2023-06-25T09:28:00.704Z,52.41
2023-06-25T09:29:01.656Z,51.82
2023-06-25T09:30:02.601Z,52.22
2023-06-25T09:31:03.565Z,51.72
2023-06-25T09:32:04.493Z,53.28
2023-06-25T09:33:05.413Z,52.78
2023-06-25T09:34:06.323Z,53.38
2023-06-25T09:35:07.248Z,51.89
2023-06-25T09:36:25.443Z,51.99
2023-06-25T09:37:09.943Z,53.38
2023-06-25T09:38:09.852Z,53.35
2023-06-25T09:39:10.781Z,53.55
2023-06-25T09:40:12.635Z,52.07
2023-06-25T09:41:12.611Z,49.59
2023-06-25T09:42:13.520Z,50.68
2023-06-25T09:43:16.135Z,51.28
2023-06-25T09:44:15.037Z,51.97
2023-06-25T09:45:16.660Z,51.28
2023-06-25T09:46:17.176Z,51.84
2023-06-25T09:47:17.101Z,50.85
2023-06-25T09:48:17.982Z,50.76
2023-06-25T09:49:19.624Z,51.15
2023-06-25T09:50:19.537Z,51.75
2023-06-25T09:51:20.515Z,52.14
2023-06-25T09:52:21.412Z,50.85
2023-06-25T09:53:23.181Z,51.65
2023-06-25T09:54:23.154Z,50.16
2023-06-25T09:55:25.672Z,50.36
2023-06-25T09:56:24.630Z,50.26
2023-06-25T09:57:25.550Z,50.24
2023-06-25T09:58:26.463Z,49.15
2023-06-25T09:59:28.141Z,49.87
2023-06-25T10:00:28.154Z,48.97
2023-06-25T10:01:29.148Z,50.16
2023-06-25T10:02:29.780Z,49.05
2023-06-25T10:03:30.431Z,48.46
2023-06-25T10:04:30.901Z,48.65
2023-06-25T10:05:31.409Z,49.15
2023-06-25T10:06:32.318Z,48.36
2023-06-25T10:07:33.225Z,47.07
2023-06-25T10:08:34.148Z,48.26
2023-06-25T10:09:35.082Z,49.13
2023-06-25T10:10:36.222Z,48.73
2023-06-25T10:11:37.014Z,49.52
2023-06-25T10:12:37.455Z,48.93
2023-06-25T10:13:38.338Z,46.55
2023-06-25T10:14:39.266Z,45.47
2023-06-25T10:15:40.375Z,44.28
2023-06-25T10:16:41.022Z,43.29
2023-06-25T10:17:42.756Z,43.39
2023-06-25T10:18:43.639Z,43.79
2023-06-25T10:19:43.657Z,42.99
2023-06-25T10:20:44.574Z,44.10
2023-06-25T10:21:46.170Z,46.78
2023-06-25T10:22:46.082Z,46.97
2023-06-25T10:23:47.012Z,46.66
2023-06-25T10:24:47.940Z,46.85
2023-06-25T10:25:48.864Z,47.15
2023-06-25T10:26:50.645Z,48.43
2023-06-25T10:27:50.552Z,48.31
2023-06-25T10:28:51.487Z,49.69
2023-06-25T10:29:52.399Z,46.83
2023-06-25T10:30:58.270Z,46.83
2023-06-25T10:31:54.220Z,44.75
2023-06-25T10:32:55.149Z,46.44
2023-06-25T10:33:56.108Z,45.52
2023-06-25T10:34:57.019Z,46.91
2023-06-25T10:35:57.937Z,46.41
2023-06-25T10:36:58.859Z,46.61
2023-06-25T10:37:59.798Z,45.40
2023-06-25T10:39:01.650Z,46.19
2023-06-25T10:40:01.603Z,44.71
2023-06-25T10:41:02.487Z,43.80
2023-06-25T10:42:04.175Z,45.18
2023-06-25T10:43:04.153Z,45.57
2023-06-25T10:44:05.042Z,45.48
2023-06-25T10:45:05.970Z,46.07
2023-06-25T10:46:06.868Z,46.74
2023-06-25T10:47:07.839Z,44.76
2023-06-25T10:48:09.731Z,46.15
2023-06-25T10:49:09.596Z,45.95
2023-06-25T10:50:11.162Z,44.37
2023-06-25T10:51:11.656Z,44.67
2023-06-25T10:52:11.706Z,46.44
2023-06-25T10:53:12.127Z,45.46
2023-06-25T10:54:13.033Z,44.57
2023-06-25T10:55:13.936Z,45.36
2023-06-25T10:56:15.691Z,45.63
2023-06-25T10:57:15.630Z,46.03
2023-06-25T10:58:17.184Z,46.12
2023-06-25T10:59:17.684Z,44.65
2023-06-25T11:00:17.590Z,46.91
2023-06-25T11:01:18.537Z,45.73
2023-06-25T11:02:22.632Z,45.24
2023-06-25T11:03:22.302Z,44.45
2023-06-25T11:04:20.719Z,45.21
2023-06-25T11:05:21.612Z,44.13
2023-06-25T11:06:23.169Z,44.33
2023-06-25T11:07:23.424Z,45.71
2023-06-25T11:08:23.914Z,45.61
2023-06-25T11:09:24.822Z,45.71
2023-06-25T11:10:25.769Z,45.02
2023-06-25T11:11:27.691Z,44.11
2023-06-25T11:12:27.640Z,42.16
2023-06-25T11:13:28.553Z,45.41
2023-06-25T11:14:29.284Z,45.31
2023-06-25T11:15:30.239Z,45.31
2023-06-25T11:16:31.118Z,44.92
2023-06-25T11:17:32.052Z,45.51
2023-06-25T11:18:33.701Z,45.31
2023-06-25T11:19:33.618Z,43.64
2023-06-25T11:20:34.862Z,43.54
2023-06-25T11:21:35.482Z,43.64
2023-06-25T11:22:36.412Z,43.64
2023-06-25T11:23:37.335Z,43.64
2023-06-25T11:24:38.254Z,44.11
2023-06-25T11:25:41.331Z,43.42
2023-06-25T11:26:40.071Z,43.13
2023-06-25T11:27:42.713Z,42.14
2023-06-25T11:28:41.632Z,41.94
2023-06-25T11:29:42.175Z,41.75
2023-06-25T11:30:42.947Z,42.14
2023-06-25T11:31:43.856Z,42.14
2023-06-25T11:32:46.781Z,43.62
2023-06-25T11:33:45.670Z,41.93
2023-06-25T11:34:46.729Z,43.79
2023-06-25T11:35:47.159Z,43.79
2023-06-25T11:36:48.066Z,42.99
2023-06-25T11:37:48.990Z,43.48
2023-06-25T11:38:49.941Z,43.57
2023-06-25T11:39:50.907Z,43.87
2023-06-25T11:40:52.680Z,40.43
2023-06-25T11:41:52.628Z,42.20
2023-06-25T11:42:53.554Z,41.61
2023-06-25T11:43:54.511Z,44.07
2023-06-25T11:44:55.429Z,42.30
2023-06-25T11:45:56.376Z,41.11
2023-06-25T11:46:57.334Z,42.86
2023-06-25T11:47:58.301Z,42.18
2023-06-25T11:49:00.196Z,40.41
2023-06-25T11:50:00.161Z,40.21
2023-06-25T11:51:01.064Z,38.92
2023-06-25T11:52:01.979Z,41.67
2023-06-25T11:53:03.903Z,40.58
2023-06-25T11:54:04.536Z,42.04
2023-06-25T11:55:04.446Z,40.56
2023-06-25T11:56:06.266Z,39.58
2023-06-25T11:57:06.066Z,41.03
2023-06-25T11:58:06.994Z,40.45
2023-06-25T11:59:08.818Z,38.98
2023-06-25T12:00:08.703Z,39.76
2023-06-25T12:01:10.190Z,38.85
2023-06-25T12:02:10.808Z,39.54
2023-06-25T12:03:11.305Z,37.99
2023-06-25T12:04:12.299Z,39.00
2023-06-25T12:05:12.719Z,39.09
2023-06-25T12:06:13.647Z,38.72
2023-06-25T12:07:15.254Z,41.17
2023-06-25T12:08:15.173Z,39.80
2023-06-25T12:09:16.116Z,38.44
2023-06-25T12:10:17.016Z,41.39
2023-06-25T12:11:17.930Z,43.06
2023-06-25T12:12:18.835Z,40.88
2023-06-25T12:13:19.750Z,41.47
2023-06-25T12:14:20.716Z,41.25
2023-06-25T12:15:21.603Z,40.66
2023-06-25T12:16:22.548Z,39.47
2023-06-25T12:17:23.498Z,40.43
2023-06-25T12:18:24.386Z,41.31
2023-06-25T12:19:25.309Z,38.66
2023-06-25T12:20:27.206Z,39.74
2023-06-25T12:21:27.265Z,39.43
2023-06-25T12:22:27.782Z,39.33
2023-06-25T12:23:28.465Z,38.25
2023-06-25T12:24:29.414Z,38.64
2023-06-25T12:25:30.334Z,38.37
2023-06-25T12:26:31.247Z,38.07
2023-06-25T12:27:32.168Z,37.68
2023-06-25T12:28:33.149Z,38.85
2023-06-25T12:29:35.759Z,38.74
2023-06-25T12:30:34.663Z,38.15
2023-06-25T12:31:35.633Z,38.45
2023-06-25T12:32:38.239Z,37.54
2023-06-25T12:33:37.176Z,38.23
2023-06-25T12:34:38.083Z,36.96
2023-06-25T12:35:39.303Z,38.92
2023-06-25T12:36:40.721Z,37.94
2023-06-25T12:37:40.627Z,39.11
2023-06-25T12:38:41.580Z,40.19
2023-06-25T12:39:42.487Z,38.74
2023-06-25T12:40:43.453Z,37.66
2023-06-25T12:41:44.348Z,39.43
2023-06-25T12:42:45.268Z,39.72
2023-06-25T12:43:46.177Z,38.25
2023-06-25T12:44:47.054Z,39.62
2023-06-25T12:45:49.664Z,39.41
2023-06-25T12:46:48.858Z,37.25
2023-06-25T12:47:49.929Z,38.54
2023-06-25T12:48:50.425Z,36.49
2023-06-25T12:49:51.352Z,37.56
2023-06-25T12:50:52.266Z,37.27
2023-06-25T12:51:53.184Z,36.98
2023-06-25T12:52:54.104Z,37.94
2023-06-25T12:53:55.019Z,37.65
2023-06-25T12:54:56.732Z,37.84
2023-06-25T12:55:57.234Z,38.21
2023-06-25T12:56:57.710Z,37.33
2023-06-25T12:57:58.110Z,37.31
2023-06-25T12:59:00.739Z,36.24
2023-06-25T12:59:59.675Z,36.53
2023-06-25T13:01:07.460Z,36.92
2023-06-25T13:02:02.579Z,36.14
2023-06-25T13:03:04.366Z,37.33